sensor_id;sensor_type;location;lat;lon;timestamp;P1;durP1;ratioP1;P2;durP2;ratioP2
75854;SDS011;64502;59.976;30.316;2024-03-25T00:00:27;3.75;;;1.80;;
75854;SDS011;64502;59.976;30.316;2024-03-25T00:05:37;7.47;;;2.03;;
75854;SDS011;64502;59.976;30.316;2024-03-25T00:08:03;6.28;;;1.70;;
75854;SDS011;64502;59.976;30.316;2024-03-25T00:10:29;3.85;;;1.40;;
75854;SDS011;64502;59.976;30.316;2024-03-25T00:12:54;5.38;;;1.52;;
75854;SDS011;64502;59.976;30.316;2024-03-25T00:15:21;3.28;;;1.33;;
75854;SDS011;64502;59.976;30.316;2024-03-25T00:17:49;3.85;;;1.38;;
75854;SDS011;64502;59.976;30.316;2024-03-25T00:20:15;5.03;;;1.42;;
75854;SDS011;64502;59.976;30.316;2024-03-25T00:22:41;5.65;;;1.50;;
75854;SDS011;64502;59.976;30.316;2024-03-25T00:25:06;4.53;;;1.42;;
75854;SDS011;64502;59.976;30.316;2024-03-25T00:27:32;4.28;;;1.70;;
75854;SDS011;64502;59.976;30.316;2024-03-25T00:29:58;4.30;;;1.80;;
75854;SDS011;64502;59.976;30.316;2024-03-25T00:32:23;5.70;;;1.77;;
75854;SDS011;64502;59.976;30.316;2024-03-25T00:34:49;7.15;;;1.85;;
75854;SDS011;64502;59.976;30.316;2024-03-25T00:37:15;3.25;;;1.42;;
75854;SDS011;64502;59.976;30.316;2024-03-25T00:39:42;5.25;;;1.65;;
75854;SDS011;64502;59.976;30.316;2024-03-25T00:42:08;6.45;;;1.35;;
75854;SDS011;64502;59.976;30.316;2024-03-25T00:44:33;3.25;;;1.42;;
75854;SDS011;64502;59.976;30.316;2024-03-25T00:46:59;3.78;;;1.58;;
75854;SDS011;64502;59.976;30.316;2024-03-25T00:52:09;7.30;;;2.22;;
75854;SDS011;64502;59.976;30.316;2024-03-25T00:54:34;6.00;;;1.90;;
75854;SDS011;64502;59.976;30.316;2024-03-25T00:57:00;5.55;;;2.20;;
75854;SDS011;64502;59.976;30.316;2024-03-25T00:59:26;3.50;;;1.77;;
75854;SDS011;64502;59.976;30.316;2024-03-25T01:01:51;7.97;;;2.03;;
75854;SDS011;64502;59.976;30.316;2024-03-25T01:04:17;4.57;;;1.65;;
75854;SDS011;64502;59.976;30.316;2024-03-25T01:06:43;5.63;;;2.20;;
75854;SDS011;64502;59.976;30.316;2024-03-25T01:09:08;4.65;;;1.80;;
75854;SDS011;64502;59.976;30.316;2024-03-25T01:14:38;4.07;;;1.45;;
75854;SDS011;64502;59.976;30.316;2024-03-25T01:17:04;4.80;;;1.35;;
75854;SDS011;64502;59.976;30.316;2024-03-25T01:19:29;3.45;;;1.42;;
75854;SDS011;64502;59.976;30.316;2024-03-25T01:21:54;2.55;;;0.85;;
75854;SDS011;64502;59.976;30.316;2024-03-25T01:24:20;3.28;;;1.10;;
75854;SDS011;64502;59.976;30.316;2024-03-25T01:26:46;3.38;;;1.55;;
75854;SDS011;64502;59.976;30.316;2024-03-25T01:29:11;4.68;;;1.50;;
75854;SDS011;64502;59.976;30.316;2024-03-25T01:31:37;2.72;;;1.10;;
75854;SDS011;64502;59.976;30.316;2024-03-25T01:34:03;4.40;;;1.42;;
75854;SDS011;64502;59.976;30.316;2024-03-25T01:36:28;4.82;;;1.40;;
75854;SDS011;64502;59.976;30.316;2024-03-25T01:38:54;6.68;;;1.83;;
75854;SDS011;64502;59.976;30.316;2024-03-25T01:41:20;3.92;;;1.58;;
75854;SDS011;64502;59.976;30.316;2024-03-25T01:44:05;4.90;;;1.90;;
75854;SDS011;64502;59.976;30.316;2024-03-25T01:46:30;2.92;;;1.10;;
75854;SDS011;64502;59.976;30.316;2024-03-25T01:48:56;4.93;;;1.75;;
75854;SDS011;64502;59.976;30.316;2024-03-25T01:51:23;4.90;;;2.13;;
75854;SDS011;64502;59.976;30.316;2024-03-25T01:53:50;2.40;;;1.13;;
75854;SDS011;64502;59.976;30.316;2024-03-25T01:56:18;3.55;;;1.20;;
75854;SDS011;64502;59.976;30.316;2024-03-25T01:58:45;4.18;;;1.42;;
75854;SDS011;64502;59.976;30.316;2024-03-25T02:01:11;3.17;;;1.02;;
75854;SDS011;64502;59.976;30.316;2024-03-25T02:03:40;3.05;;;1.13;;
75854;SDS011;64502;59.976;30.316;2024-03-25T02:06:09;4.05;;;1.42;;
75854;SDS011;64502;59.976;30.316;2024-03-25T02:08:41;3.85;;;1.65;;
75854;SDS011;64502;59.976;30.316;2024-03-25T02:11:07;3.35;;;1.20;;
75854;SDS011;64502;59.976;30.316;2024-03-25T02:13:34;5.90;;;1.92;;
75854;SDS011;64502;59.976;30.316;2024-03-25T02:16:01;4.25;;;1.40;;
75854;SDS011;64502;59.976;30.316;2024-03-25T02:18:27;3.97;;;1.95;;
75854;SDS011;64502;59.976;30.316;2024-03-25T02:20:53;7.60;;;2.40;;
75854;SDS011;64502;59.976;30.316;2024-03-25T02:23:18;6.82;;;1.98;;
75854;SDS011;64502;59.976;30.316;2024-03-25T02:25:49;4.57;;;1.90;;
75854;SDS011;64502;59.976;30.316;2024-03-25T02:28:15;7.57;;;3.22;;
75854;SDS011;64502;59.976;30.316;2024-03-25T02:30:41;8.65;;;2.30;;
75854;SDS011;64502;59.976;30.316;2024-03-25T02:33:07;7.88;;;2.53;;
75854;SDS011;64502;59.976;30.316;2024-03-25T02:35:32;5.43;;;2.50;;
75854;SDS011;64502;59.976;30.316;2024-03-25T02:37:59;4.78;;;1.95;;
75854;SDS011;64502;59.976;30.316;2024-03-25T02:40:25;8.07;;;2.65;;
75854;SDS011;64502;59.976;30.316;2024-03-25T02:42:51;5.68;;;2.40;;
75854;SDS011;64502;59.976;30.316;2024-03-25T02:45:17;8.23;;;3.10;;
75854;SDS011;64502;59.976;30.316;2024-03-25T02:47:43;8.15;;;2.75;;
75854;SDS011;64502;59.976;30.316;2024-03-25T02:50:08;8.27;;;3.03;;
75854;SDS011;64502;59.976;30.316;2024-03-25T02:52:34;8.20;;;2.40;;
75854;SDS011;64502;59.976;30.316;2024-03-25T02:55:00;4.95;;;1.85;;
75854;SDS011;64502;59.976;30.316;2024-03-25T02:57:26;5.60;;;2.60;;
75854;SDS011;64502;59.976;30.316;2024-03-25T02:59:51;9.02;;;3.63;;
75854;SDS011;64502;59.976;30.316;2024-03-25T03:02:17;5.18;;;2.20;;
75854;SDS011;64502;59.976;30.316;2024-03-25T03:04:42;8.32;;;2.53;;
75854;SDS011;64502;59.976;30.316;2024-03-25T03:07:08;8.25;;;2.75;;
75854;SDS011;64502;59.976;30.316;2024-03-25T03:09:34;7.38;;;3.05;;
75854;SDS011;64502;59.976;30.316;2024-03-25T03:11:59;13.55;;;3.05;;
75854;SDS011;64502;59.976;30.316;2024-03-25T03:14:25;7.68;;;2.47;;
75854;SDS011;64502;59.976;30.316;2024-03-25T03:16:51;15.57;;;3.03;;
75854;SDS011;64502;59.976;30.316;2024-03-25T03:19:26;9.90;;;3.95;;
75854;SDS011;64502;59.976;30.316;2024-03-25T03:21:52;17.52;;;3.58;;
75854;SDS011;64502;59.976;30.316;2024-03-25T03:24:19;15.30;;;2.85;;
75854;SDS011;64502;59.976;30.316;2024-03-25T03:26:44;19.58;;;3.60;;
75854;SDS011;64502;59.976;30.316;2024-03-25T03:29:10;19.08;;;3.25;;
75854;SDS011;64502;59.976;30.316;2024-03-25T03:31:36;19.48;;;3.60;;
75854;SDS011;64502;59.976;30.316;2024-03-25T03:34:20;19.20;;;2.97;;
75854;SDS011;64502;59.976;30.316;2024-03-25T03:36:46;17.25;;;3.20;;
75854;SDS011;64502;59.976;30.316;2024-03-25T03:39:11;7.30;;;1.80;;
75854;SDS011;64502;59.976;30.316;2024-03-25T03:41:38;14.32;;;2.17;;
75854;SDS011;64502;59.976;30.316;2024-03-25T03:44:04;12.18;;;2.67;;
75854;SDS011;64502;59.976;30.316;2024-03-25T03:46:48;12.35;;;3.40;;
75854;SDS011;64502;59.976;30.316;2024-03-25T03:49:13;17.35;;;3.25;;
75854;SDS011;64502;59.976;30.316;2024-03-25T03:51:39;15.57;;;2.67;;
75854;SDS011;64502;59.976;30.316;2024-03-25T03:54:05;8.45;;;2.55;;
75854;SDS011;64502;59.976;30.316;2024-03-25T03:56:30;14.15;;;2.78;;
75854;SDS011;64502;59.976;30.316;2024-03-25T03:58:56;15.18;;;3.05;;
75854;SDS011;64502;59.976;30.316;2024-03-25T04:01:21;12.60;;;3.65;;
75854;SDS011;64502;59.976;30.316;2024-03-25T04:03:48;13.25;;;4.10;;
75854;SDS011;64502;59.976;30.316;2024-03-25T04:06:14;9.43;;;3.28;;
75854;SDS011;64502;59.976;30.316;2024-03-25T04:08:58;12.88;;;3.30;;
75854;SDS011;64502;59.976;30.316;2024-03-25T04:11:24;8.65;;;3.40;;
75854;SDS011;64502;59.976;30.316;2024-03-25T04:13:49;10.25;;;3.00;;
75854;SDS011;64502;59.976;30.316;2024-03-25T04:16:15;11.38;;;4.18;;
75854;SDS011;64502;59.976;30.316;2024-03-25T04:18:40;12.50;;;3.95;;
75854;SDS011;64502;59.976;30.316;2024-03-25T04:21:11;10.98;;;3.38;;
75854;SDS011;64502;59.976;30.316;2024-03-25T04:23:37;8.18;;;3.15;;
75854;SDS011;64502;59.976;30.316;2024-03-25T04:26:03;7.97;;;2.85;;
75854;SDS011;64502;59.976;30.316;2024-03-25T04:28:31;6.45;;;2.67;;
75854;SDS011;64502;59.976;30.316;2024-03-25T04:30:56;9.15;;;3.05;;
75854;SDS011;64502;59.976;30.316;2024-03-25T04:33:22;6.68;;;2.53;;
75854;SDS011;64502;59.976;30.316;2024-03-25T04:35:48;4.35;;;1.75;;
75854;SDS011;64502;59.976;30.316;2024-03-25T04:38:15;5.57;;;2.25;;
75854;SDS011;64502;59.976;30.316;2024-03-25T04:40:41;6.45;;;1.98;;
75854;SDS011;64502;59.976;30.316;2024-03-25T04:43:07;6.85;;;2.40;;
75854;SDS011;64502;59.976;30.316;2024-03-25T04:45:32;7.38;;;2.20;;
75854;SDS011;64502;59.976;30.316;2024-03-25T04:50:42;3.65;;;1.40;;
75854;SDS011;64502;59.976;30.316;2024-03-25T04:53:08;7.00;;;1.75;;
75854;SDS011;64502;59.976;30.316;2024-03-25T04:55:34;4.03;;;1.15;;
75854;SDS011;64502;59.976;30.316;2024-03-25T04:58:00;7.47;;;2.08;;
75854;SDS011;64502;59.976;30.316;2024-03-25T05:00:25;7.47;;;1.75;;
75854;SDS011;64502;59.976;30.316;2024-03-25T05:02:51;4.15;;;1.52;;
75854;SDS011;64502;59.976;30.316;2024-03-25T05:05:16;5.53;;;1.83;;
75854;SDS011;64502;59.976;30.316;2024-03-25T05:10:28;5.63;;;2.38;;
75854;SDS011;64502;59.976;30.316;2024-03-25T05:12:54;8.73;;;2.25;;
75854;SDS011;64502;59.976;30.316;2024-03-25T05:15:20;6.60;;;1.83;;
75854;SDS011;64502;59.976;30.316;2024-03-25T05:17:46;7.25;;;2.28;;
75854;SDS011;64502;59.976;30.316;2024-03-25T05:20:12;5.93;;;2.45;;
75854;SDS011;64502;59.976;30.316;2024-03-25T05:22:37;5.85;;;2.47;;
75854;SDS011;64502;59.976;30.316;2024-03-25T05:25:03;5.35;;;2.25;;
75854;SDS011;64502;59.976;30.316;2024-03-25T05:27:29;5.88;;;2.47;;
75854;SDS011;64502;59.976;30.316;2024-03-25T05:29:55;6.20;;;2.78;;
75854;SDS011;64502;59.976;30.316;2024-03-25T05:32:20;5.95;;;2.50;;
75854;SDS011;64502;59.976;30.316;2024-03-25T05:34:47;6.07;;;2.45;;
75854;SDS011;64502;59.976;30.316;2024-03-25T05:37:13;6.03;;;2.55;;
75854;SDS011;64502;59.976;30.316;2024-03-25T05:39:39;7.03;;;1.92;;
75854;SDS011;64502;59.976;30.316;2024-03-25T05:42:04;6.47;;;2.63;;
75854;SDS011;64502;59.976;30.316;2024-03-25T05:44:31;5.07;;;2.13;;
75854;SDS011;64502;59.976;30.316;2024-03-25T05:46:57;5.45;;;2.03;;
75854;SDS011;64502;59.976;30.316;2024-03-25T05:49:22;5.63;;;2.03;;
75854;SDS011;64502;59.976;30.316;2024-03-25T05:51:48;6.32;;;2.60;;
75854;SDS011;64502;59.976;30.316;2024-03-25T05:54:14;5.70;;;1.52;;
75854;SDS011;64502;59.976;30.316;2024-03-25T05:56:39;6.72;;;2.58;;
75854;SDS011;64502;59.976;30.316;2024-03-25T05:59:08;6.13;;;2.70;;
75854;SDS011;64502;59.976;30.316;2024-03-25T06:01:33;4.65;;;2.08;;
75854;SDS011;64502;59.976;30.316;2024-03-25T06:04:02;5.53;;;2.28;;
75854;SDS011;64502;59.976;30.316;2024-03-25T06:06:28;5.78;;;2.40;;
75854;SDS011;64502;59.976;30.316;2024-03-25T06:08:55;6.13;;;2.40;;
75854;SDS011;64502;59.976;30.316;2024-03-25T06:11:20;6.10;;;2.28;;
75854;SDS011;64502;59.976;30.316;2024-03-25T06:13:46;9.32;;;2.65;;
75854;SDS011;64502;59.976;30.316;2024-03-25T06:16:15;5.65;;;2.58;;
75854;SDS011;64502;59.976;30.316;2024-03-25T06:18:40;6.80;;;2.83;;
75854;SDS011;64502;59.976;30.316;2024-03-25T06:21:06;6.75;;;2.78;;
75854;SDS011;64502;59.976;30.316;2024-03-25T06:23:32;5.30;;;2.38;;
75854;SDS011;64502;59.976;30.316;2024-03-25T06:25:57;6.00;;;2.15;;
75854;SDS011;64502;59.976;30.316;2024-03-25T06:28:24;3.97;;;1.70;;
75854;SDS011;64502;59.976;30.316;2024-03-25T06:30:51;3.40;;;1.52;;
75854;SDS011;64502;59.976;30.316;2024-03-25T06:33:35;4.72;;;1.48;;
75854;SDS011;64502;59.976;30.316;2024-03-25T06:36:20;5.22;;;2.05;;
75854;SDS011;64502;59.976;30.316;2024-03-25T06:38:46;4.22;;;1.38;;
75854;SDS011;64502;59.976;30.316;2024-03-25T06:41:30;2.97;;;1.08;;
75854;SDS011;64502;59.976;30.316;2024-03-25T06:43:55;3.35;;;0.95;;
75854;SDS011;64502;59.976;30.316;2024-03-25T06:49:05;4.45;;;1.65;;
75854;SDS011;64502;59.976;30.316;2024-03-25T06:51:31;3.97;;;1.65;;
75854;SDS011;64502;59.976;30.316;2024-03-25T06:56:43;4.65;;;1.58;;
75854;SDS011;64502;59.976;30.316;2024-03-25T06:59:09;4.85;;;1.73;;
75854;SDS011;64502;59.976;30.316;2024-03-25T07:01:35;3.97;;;1.42;;
75854;SDS011;64502;59.976;30.316;2024-03-25T07:04:01;3.55;;;1.25;;
75854;SDS011;64502;59.976;30.316;2024-03-25T07:09:14;6.95;;;1.25;;
75854;SDS011;64502;59.976;30.316;2024-03-25T07:11:39;7.22;;;1.80;;
75854;SDS011;64502;59.976;30.316;2024-03-25T07:14:08;4.32;;;1.60;;
75854;SDS011;64502;59.976;30.316;2024-03-25T07:16:33;4.35;;;1.15;;
75854;SDS011;64502;59.976;30.316;2024-03-25T07:18:59;4.78;;;1.33;;
75854;SDS011;64502;59.976;30.316;2024-03-25T07:21:26;7.30;;;1.40;;
75854;SDS011;64502;59.976;30.316;2024-03-25T07:23:53;3.40;;;1.45;;
75854;SDS011;64502;59.976;30.316;2024-03-25T07:26:19;4.50;;;1.60;;
75854;SDS011;64502;59.976;30.316;2024-03-25T07:28:45;4.03;;;1.52;;
75854;SDS011;64502;59.976;30.316;2024-03-25T07:31:11;4.47;;;1.75;;
75854;SDS011;64502;59.976;30.316;2024-03-25T07:33:37;3.47;;;1.63;;
75854;SDS011;64502;59.976;30.316;2024-03-25T07:36:05;3.22;;;1.20;;
75854;SDS011;64502;59.976;30.316;2024-03-25T07:38:34;3.78;;;1.15;;
75854;SDS011;64502;59.976;30.316;2024-03-25T07:41:03;2.90;;;1.27;;
75854;SDS011;64502;59.976;30.316;2024-03-25T07:43:29;3.70;;;0.95;;
75854;SDS011;64502;59.976;30.316;2024-03-25T07:45:58;4.70;;;0.93;;
75854;SDS011;64502;59.976;30.316;2024-03-25T07:48:24;2.85;;;1.20;;
75854;SDS011;64502;59.976;30.316;2024-03-25T07:50:52;3.55;;;1.13;;
75854;SDS011;64502;59.976;30.316;2024-03-25T07:53:23;2.47;;;0.88;;
75854;SDS011;64502;59.976;30.316;2024-03-25T07:55:49;4.93;;;1.63;;
75854;SDS011;64502;59.976;30.316;2024-03-25T07:58:16;5.25;;;1.58;;
75854;SDS011;64502;59.976;30.316;2024-03-25T08:00:44;2.25;;;0.98;;
75854;SDS011;64502;59.976;30.316;2024-03-25T08:03:12;4.45;;;1.20;;
75854;SDS011;64502;59.976;30.316;2024-03-25T08:05:38;5.38;;;1.35;;
75854;SDS011;64502;59.976;30.316;2024-03-25T08:08:05;3.92;;;0.98;;
75854;SDS011;64502;59.976;30.316;2024-03-25T08:10:36;4.15;;;0.90;;
75854;SDS011;64502;59.976;30.316;2024-03-25T08:13:02;3.58;;;0.93;;
75854;SDS011;64502;59.976;30.316;2024-03-25T08:15:28;4.72;;;0.93;;
75854;SDS011;64502;59.976;30.316;2024-03-25T08:17:54;6.18;;;1.00;;
75854;SDS011;64502;59.976;30.316;2024-03-25T08:20:19;2.72;;;0.85;;
75854;SDS011;64502;59.976;30.316;2024-03-25T08:22:45;3.53;;;0.90;;
75854;SDS011;64502;59.976;30.316;2024-03-25T08:25:11;2.38;;;0.98;;
75854;SDS011;64502;59.976;30.316;2024-03-25T08:27:37;6.90;;;0.93;;
75854;SDS011;64502;59.976;30.316;2024-03-25T08:30:04;3.42;;;0.70;;
75854;SDS011;64502;59.976;30.316;2024-03-25T08:32:31;4.53;;;0.82;;
75854;SDS011;64502;59.976;30.316;2024-03-25T08:34:58;3.65;;;0.90;;
75854;SDS011;64502;59.976;30.316;2024-03-25T08:37:44;3.50;;;0.90;;
75854;SDS011;64502;59.976;30.316;2024-03-25T08:40:10;2.50;;;0.52;;
75854;SDS011;64502;59.976;30.316;2024-03-25T08:42:36;1.70;;;0.50;;
75854;SDS011;64502;59.976;30.316;2024-03-25T08:45:01;2.05;;;0.43;;
75854;SDS011;64502;59.976;30.316;2024-03-25T08:47:28;2.63;;;0.65;;
75854;SDS011;64502;59.976;30.316;2024-03-25T08:49:54;2.15;;;0.60;;
75854;SDS011;64502;59.976;30.316;2024-03-25T08:52:19;1.42;;;0.40;;
75854;SDS011;64502;59.976;30.316;2024-03-25T08:54:45;2.08;;;0.85;;
75854;SDS011;64502;59.976;30.316;2024-03-25T08:57:11;2.60;;;0.63;;
75854;SDS011;64502;59.976;30.316;2024-03-25T08:59:36;5.97;;;0.95;;
75854;SDS011;64502;59.976;30.316;2024-03-25T09:02:02;3.33;;;0.50;;
75854;SDS011;64502;59.976;30.316;2024-03-25T09:04:28;9.88;;;1.42;;
75854;SDS011;64502;59.976;30.316;2024-03-25T09:06:53;4.38;;;1.05;;
75854;SDS011;64502;59.976;30.316;2024-03-25T09:09:19;11.07;;;1.33;;
75854;SDS011;64502;59.976;30.316;2024-03-25T09:12:04;4.53;;;0.90;;
75854;SDS011;64502;59.976;30.316;2024-03-25T09:14:29;6.07;;;1.10;;
75854;SDS011;64502;59.976;30.316;2024-03-25T09:16:55;6.32;;;1.02;;
75854;SDS011;64502;59.976;30.316;2024-03-25T09:19:21;3.35;;;0.98;;
75854;SDS011;64502;59.976;30.316;2024-03-25T09:21:46;3.75;;;0.63;;
75854;SDS011;64502;59.976;30.316;2024-03-25T09:24:12;2.03;;;0.60;;
75854;SDS011;64502;59.976;30.316;2024-03-25T09:26:37;4.38;;;0.63;;
75854;SDS011;64502;59.976;30.316;2024-03-25T09:29:04;2.10;;;0.80;;
75854;SDS011;64502;59.976;30.316;2024-03-25T09:31:29;2.78;;;0.65;;
75854;SDS011;64502;59.976;30.316;2024-03-25T09:33:55;2.60;;;0.70;;
75854;SDS011;64502;59.976;30.316;2024-03-25T09:36:20;2.70;;;0.63;;
75854;SDS011;64502;59.976;30.316;2024-03-25T09:38:47;1.85;;;0.50;;
75854;SDS011;64502;59.976;30.316;2024-03-25T09:41:13;3.15;;;0.70;;
75854;SDS011;64502;59.976;30.316;2024-03-25T09:43:48;3.38;;;0.70;;
75854;SDS011;64502;59.976;30.316;2024-03-25T09:46:17;2.03;;;0.57;;
75854;SDS011;64502;59.976;30.316;2024-03-25T09:48:43;2.22;;;0.88;;
75854;SDS011;64502;59.976;30.316;2024-03-25T09:51:09;2.28;;;0.75;;
75854;SDS011;64502;59.976;30.316;2024-03-25T09:53:35;3.05;;;0.50;;
75854;SDS011;64502;59.976;30.316;2024-03-25T09:56:01;2.50;;;0.93;;
75854;SDS011;64502;59.976;30.316;2024-03-25T09:58:27;2.53;;;0.73;;
75854;SDS011;64502;59.976;30.316;2024-03-25T10:00:54;3.55;;;1.20;;
75854;SDS011;64502;59.976;30.316;2024-03-25T10:03:21;2.13;;;1.00;;
75854;SDS011;64502;59.976;30.316;2024-03-25T10:05:47;1.67;;;0.73;;
75854;SDS011;64502;59.976;30.316;2024-03-25T10:08:13;2.63;;;0.80;;
75854;SDS011;64502;59.976;30.316;2024-03-25T10:10:44;2.00;;;0.73;;
75854;SDS011;64502;59.976;30.316;2024-03-25T10:13:11;2.85;;;0.68;;
75854;SDS011;64502;59.976;30.316;2024-03-25T10:15:37;4.85;;;0.70;;
75854;SDS011;64502;59.976;30.316;2024-03-25T10:18:03;1.75;;;0.68;;
75854;SDS011;64502;59.976;30.316;2024-03-25T10:20:28;2.47;;;0.63;;
75854;SDS011;64502;59.976;30.316;2024-03-25T10:25:38;3.72;;;1.15;;
75854;SDS011;64502;59.976;30.316;2024-03-25T10:28:04;2.33;;;0.70;;
75854;SDS011;64502;59.976;30.316;2024-03-25T10:30:30;2.72;;;1.15;;
75854;SDS011;64502;59.976;30.316;2024-03-25T10:35:29;3.85;;;1.10;;
75854;SDS011;64502;59.976;30.316;2024-03-25T10:38:18;3.80;;;1.10;;
75854;SDS011;64502;59.976;30.316;2024-03-25T10:40:44;3.97;;;0.82;;
75854;SDS011;64502;59.976;30.316;2024-03-25T10:43:11;4.00;;;0.88;;
75854;SDS011;64502;59.976;30.316;2024-03-25T10:45:41;1.83;;;0.60;;
75854;SDS011;64502;59.976;30.316;2024-03-25T10:50:46;2.53;;;0.80;;
75854;SDS011;64502;59.976;30.316;2024-03-25T10:53:14;4.53;;;1.08;;
75854;SDS011;64502;59.976;30.316;2024-03-25T10:55:44;3.47;;;1.00;;
75854;SDS011;64502;59.976;30.316;2024-03-25T10:58:15;2.85;;;0.70;;
75854;SDS011;64502;59.976;30.316;2024-03-25T11:00:42;7.75;;;0.90;;
75854;SDS011;64502;59.976;30.316;2024-03-25T11:03:09;2.50;;;0.77;;
75854;SDS011;64502;59.976;30.316;2024-03-25T11:05:35;3.08;;;0.77;;
75854;SDS011;64502;59.976;30.316;2024-03-25T11:08:13;2.38;;;0.73;;
75854;SDS011;64502;59.976;30.316;2024-03-25T11:10:39;3.33;;;0.55;;
75854;SDS011;64502;59.976;30.316;2024-03-25T11:13:26;1.75;;;0.63;;
75854;SDS011;64502;59.976;30.316;2024-03-25T11:15:53;2.20;;;0.75;;
75854;SDS011;64502;59.976;30.316;2024-03-25T11:18:22;2.72;;;0.80;;
75854;SDS011;64502;59.976;30.316;2024-03-25T11:21:05;2.10;;;0.73;;
75854;SDS011;64502;59.976;30.316;2024-03-25T11:23:51;6.80;;;1.10;;
75854;SDS011;64502;59.976;30.316;2024-03-25T11:26:26;3.65;;;0.70;;
75854;SDS011;64502;59.976;30.316;2024-03-25T11:28:55;4.93;;;0.73;;
75854;SDS011;64502;59.976;30.316;2024-03-25T11:31:23;2.33;;;0.60;;
75854;SDS011;64502;59.976;30.316;2024-03-25T11:33:51;3.78;;;0.73;;
75854;SDS011;64502;59.976;30.316;2024-03-25T11:36:17;3.13;;;0.85;;
75854;SDS011;64502;59.976;30.316;2024-03-25T11:38:44;2.97;;;0.68;;
75854;SDS011;64502;59.976;30.316;2024-03-25T11:41:12;2.75;;;0.80;;
75854;SDS011;64502;59.976;30.316;2024-03-25T11:43:40;2.13;;;0.38;;
75854;SDS011;64502;59.976;30.316;2024-03-25T11:46:08;3.88;;;0.63;;
75854;SDS011;64502;59.976;30.316;2024-03-25T11:48:35;2.40;;;0.70;;
75854;SDS011;64502;59.976;30.316;2024-03-25T11:51:05;3.42;;;0.90;;
75854;SDS011;64502;59.976;30.316;2024-03-25T11:53:32;2.75;;;1.05;;
75854;SDS011;64502;59.976;30.316;2024-03-25T11:56:05;4.78;;;1.20;;
75854;SDS011;64502;59.976;30.316;2024-03-25T11:58:32;2.88;;;1.13;;
75854;SDS011;64502;59.976;30.316;2024-03-25T12:00:58;4.18;;;1.23;;
75854;SDS011;64502;59.976;30.316;2024-03-25T12:03:28;4.07;;;0.98;;
75854;SDS011;64502;59.976;30.316;2024-03-25T12:05:56;2.67;;;1.02;;
75854;SDS011;64502;59.976;30.316;2024-03-25T12:08:23;2.60;;;1.20;;
75854;SDS011;64502;59.976;30.316;2024-03-25T12:10:53;2.47;;;0.93;;
75854;SDS011;64502;59.976;30.316;2024-03-25T12:13:37;3.45;;;1.40;;
75854;SDS011;64502;59.976;30.316;2024-03-25T12:16:25;2.65;;;1.23;;
75854;SDS011;64502;59.976;30.316;2024-03-25T12:18:51;5.65;;;1.55;;
75854;SDS011;64502;59.976;30.316;2024-03-25T12:21:20;2.92;;;1.50;;
75854;SDS011;64502;59.976;30.316;2024-03-25T12:23:47;5.10;;;1.60;;
75854;SDS011;64502;59.976;30.316;2024-03-25T12:26:14;4.43;;;1.45;;
75854;SDS011;64502;59.976;30.316;2024-03-25T12:28:42;8.13;;;1.63;;
75854;SDS011;64502;59.976;30.316;2024-03-25T12:31:09;6.43;;;1.65;;
75854;SDS011;64502;59.976;30.316;2024-03-25T12:33:40;6.28;;;1.52;;
75854;SDS011;64502;59.976;30.316;2024-03-25T12:36:07;5.10;;;1.55;;
75854;SDS011;64502;59.976;30.316;2024-03-25T12:38:39;6.28;;;2.13;;
75854;SDS011;64502;59.976;30.316;2024-03-25T12:41:22;4.60;;;1.83;;
75854;SDS011;64502;59.976;30.316;2024-03-25T12:43:49;6.90;;;2.10;;
75854;SDS011;64502;59.976;30.316;2024-03-25T12:46:16;4.13;;;1.77;;
75854;SDS011;64502;59.976;30.316;2024-03-25T12:51:30;3.38;;;1.63;;
75854;SDS011;64502;59.976;30.316;2024-03-25T12:53:58;4.47;;;1.98;;
75854;SDS011;64502;59.976;30.316;2024-03-25T12:56:26;5.35;;;1.67;;
75854;SDS011;64502;59.976;30.316;2024-03-25T12:58:53;5.07;;;1.80;;
75854;SDS011;64502;59.976;30.316;2024-03-25T13:01:24;4.72;;;1.90;;
75854;SDS011;64502;59.976;30.316;2024-03-25T13:03:56;8.25;;;1.52;;
75854;SDS011;64502;59.976;30.316;2024-03-25T13:06:23;3.92;;;1.73;;
75854;SDS011;64502;59.976;30.316;2024-03-25T13:08:51;5.15;;;1.67;;
75854;SDS011;64502;59.976;30.316;2024-03-25T13:11:19;5.35;;;1.67;;
75854;SDS011;64502;59.976;30.316;2024-03-25T13:13:46;4.22;;;1.83;;
75854;SDS011;64502;59.976;30.316;2024-03-25T13:16:12;4.05;;;1.95;;
75854;SDS011;64502;59.976;30.316;2024-03-25T13:18:48;6.40;;;1.67;;
75854;SDS011;64502;59.976;30.316;2024-03-25T13:21:15;9.23;;;2.00;;
75854;SDS011;64502;59.976;30.316;2024-03-25T13:23:40;6.18;;;1.98;;
75854;SDS011;64502;59.976;30.316;2024-03-25T13:26:06;5.82;;;2.35;;
75854;SDS011;64502;59.976;30.316;2024-03-25T13:28:32;9.20;;;1.98;;
75854;SDS011;64502;59.976;30.316;2024-03-25T13:30:58;5.93;;;1.52;;
75854;SDS011;64502;59.976;30.316;2024-03-25T13:33:26;4.28;;;1.77;;
75854;SDS011;64502;59.976;30.316;2024-03-25T13:35:54;4.43;;;1.77;;
75854;SDS011;64502;59.976;30.316;2024-03-25T13:38:21;2.85;;;1.23;;
75854;SDS011;64502;59.976;30.316;2024-03-25T13:40:48;3.78;;;1.58;;
75854;SDS011;64502;59.976;30.316;2024-03-25T13:43:13;4.10;;;1.60;;
75854;SDS011;64502;59.976;30.316;2024-03-25T13:45:45;4.32;;;1.67;;
75854;SDS011;64502;59.976;30.316;2024-03-25T13:48:13;2.88;;;1.48;;
75854;SDS011;64502;59.976;30.316;2024-03-25T13:50:42;4.78;;;1.52;;
75854;SDS011;64502;59.976;30.316;2024-03-25T13:53:09;5.68;;;1.52;;
75854;SDS011;64502;59.976;30.316;2024-03-25T13:55:36;5.55;;;1.60;;
75854;SDS011;64502;59.976;30.316;2024-03-25T13:58:03;4.28;;;1.67;;
75854;SDS011;64502;59.976;30.316;2024-03-25T14:00:30;6.00;;;1.58;;
75854;SDS011;64502;59.976;30.316;2024-03-25T14:03:00;4.93;;;2.15;;
75854;SDS011;64502;59.976;30.316;2024-03-25T14:05:28;5.05;;;2.05;;
75854;SDS011;64502;59.976;30.316;2024-03-25T14:07:55;7.38;;;2.15;;
75854;SDS011;64502;59.976;30.316;2024-03-25T14:10:22;4.75;;;1.90;;
75854;SDS011;64502;59.976;30.316;2024-03-25T14:12:48;6.65;;;2.13;;
75854;SDS011;64502;59.976;30.316;2024-03-25T14:15:14;7.65;;;2.42;;
75854;SDS011;64502;59.976;30.316;2024-03-25T14:17:39;4.65;;;1.65;;
75854;SDS011;64502;59.976;30.316;2024-03-25T14:20:07;5.40;;;2.63;;
75854;SDS011;64502;59.976;30.316;2024-03-25T14:22:35;4.68;;;1.90;;
75854;SDS011;64502;59.976;30.316;2024-03-25T14:25:01;8.77;;;2.20;;
75854;SDS011;64502;59.976;30.316;2024-03-25T14:27:27;6.53;;;2.47;;
75854;SDS011;64502;59.976;30.316;2024-03-25T14:29:52;6.47;;;2.58;;
75854;SDS011;64502;59.976;30.316;2024-03-25T14:32:18;5.88;;;1.73;;
75854;SDS011;64502;59.976;30.316;2024-03-25T14:34:46;4.40;;;1.70;;
75854;SDS011;64502;59.976;30.316;2024-03-25T14:37:12;5.20;;;2.10;;
75854;SDS011;64502;59.976;30.316;2024-03-25T14:39:40;4.25;;;1.90;;
75854;SDS011;64502;59.976;30.316;2024-03-25T14:42:24;4.43;;;2.28;;
75854;SDS011;64502;59.976;30.316;2024-03-25T14:44:50;7.53;;;2.50;;
75854;SDS011;64502;59.976;30.316;2024-03-25T14:47:15;9.68;;;2.47;;
75854;SDS011;64502;59.976;30.316;2024-03-25T14:49:41;6.18;;;1.80;;
75854;SDS011;64502;59.976;30.316;2024-03-25T14:52:07;6.00;;;2.40;;
75854;SDS011;64502;59.976;30.316;2024-03-25T14:54:34;4.82;;;1.88;;
75854;SDS011;64502;59.976;30.316;2024-03-25T14:57:00;6.45;;;1.73;;
75854;SDS011;64502;59.976;30.316;2024-03-25T14:59:26;6.03;;;2.28;;
75854;SDS011;64502;59.976;30.316;2024-03-25T15:01:58;7.45;;;1.95;;
75854;SDS011;64502;59.976;30.316;2024-03-25T15:04:25;3.75;;;1.63;;
75854;SDS011;64502;59.976;30.316;2024-03-25T15:06:50;4.07;;;1.65;;